Time,TemperatureF,DewpointF,PressureIn,WindDirection,WindDirectionDegrees,WindSpeedMPH,WindSpeedGustMPH,Humidity,HourlyPrecipIn,Conditions,Clouds,dailyrainin,SoftwareType,DateUTC
2013-06-03 00:02:00,40.3,40.1,24.02,North,0,35.0,35.0,99,0.05,,,0.32,meteohub,2013-06-03 06:02:00,
2013-06-03 00:07:00,40.3,40.1,24.02,North,0,35.0,35.0,99,0.05,,,0.32,meteohub,2013-06-03 06:07:00,
2013-06-03 00:12:00,40.5,40.3,24.02,NNW,338,32.0,35.0,99,0.04,,,0.32,meteohub,2013-06-03 06:12:00,
2013-06-03 00:17:00,40.5,40.3,24.02,NW,315,31.0,35.0,99,0.04,,,0.32,meteohub,2013-06-03 06:17:00,
2013-06-03 00:27:00,40.5,40.3,24.02,NW,315,27.0,34.0,99,0.01,,,0.32,meteohub,2013-06-03 06:27:00,
2013-06-03 00:32:00,40.5,40.3,24.02,NW,315,25.0,31.0,99,0.01,,,0.32,meteohub,2013-06-03 06:32:00,
2013-06-03 00:37:00,39.9,39.7,24.01,NW,315,34.0,34.0,99,0.02,,,0.33,meteohub,2013-06-03 06:37:00,
2013-06-03 00:42:00,39.6,39.4,24.02,NW,315,30.0,36.0,99,0.02,,,0.33,meteohub,2013-06-03 06:42:00,
2013-06-03 00:47:00,39.7,39.6,24.02,NW,315,34.0,37.0,99,0.04,,,0.34,meteohub,2013-06-03 06:47:00,
2013-06-03 00:57:00,39.6,39.4,24.02,NNW,338,36.0,39.0,99,0.04,,,0.35,meteohub,2013-06-03 06:57:00,
2013-06-03 01:02:00,39.6,39.4,24.02,NW,315,33.0,39.0,99,0.04,,,0.35,meteohub,2013-06-03 07:02:00,
2013-06-03 01:07:00,39.6,39.4,24.01,NW,315,33.0,39.0,99,0.04,,,0.35,meteohub,2013-06-03 07:07:00,
2013-06-03 01:12:00,39.6,39.4,24.01,NW,315,30.0,36.0,99,0.05,,,0.37,meteohub,2013-06-03 07:12:00,
2013-06-03 01:22:00,39.2,39.0,24.02,NW,315,33.0,34.0,99,0.06,,,0.38,meteohub,2013-06-03 07:22:00,
2013-06-03 01:27:00,39.0,38.8,24.01,NW,315,34.0,34.0,99,0.06,,,0.38,meteohub,2013-06-03 07:27:00,
2013-06-03 01:32:00,39.0,38.8,24.02,NW,315,28.0,34.0,99,0.06,,,0.38,meteohub,2013-06-03 07:32:00,
2013-06-03 01:37:00,38.8,38.7,24.02,NW,315,30.0,34.0,99,0.06,,,0.39,meteohub,2013-06-03 07:37:00,
2013-06-03 01:42:00,38.8,38.7,24.02,WNW,293,31.0,34.0,99,0.05,,,0.39,meteohub,2013-06-03 07:42:00,
2013-06-03 01:52:00,38.7,38.5,24.02,NW,315,29.0,36.0,99,0.05,,,0.39,meteohub,2013-06-03 07:52:00,
2013-06-03 01:57:00,38.5,38.3,24.02,NNW,338,30.0,36.0,99,0.04,,,0.39,meteohub,2013-06-03 07:57:00,
2013-06-03 02:07:00,38.5,38.3,24.02,NW,315,27.0,33.0,99,0.04,,,0.39,meteohub,2013-06-03 08:07:00,
2013-06-03 02:12:00,38.3,38.1,24.02,NW,315,30.0,31.0,99,0.02,,,0.39,meteohub,2013-06-03 08:12:00,
2013-06-03 02:17:00,38.1,37.9,24.02,North,0,30.0,32.0,99,0.02,,,0.40,meteohub,2013-06-03 08:17:00,
2013-06-03 02:22:00,38.1,37.9,24.03,NW,315,27.0,32.0,99,0.02,,,0.40,meteohub,2013-06-03 08:22:00,
2013-06-03 02:27:00,37.9,37.8,24.02,NW,315,27.0,32.0,99,0.02,,,0.40,meteohub,2013-06-03 08:27:00,
2013-06-03 02:32:00,37.8,37.6,24.02,NW,315,28.0,30.0,99,0.02,,,0.40,meteohub,2013-06-03 08:32:00,
2013-06-03 02:37:00,37.0,36.9,24.02,NW,315,28.0,30.0,99,0.01,,,0.40,meteohub,2013-06-03 08:37:00,
2013-06-03 02:42:00,37.6,37.4,24.02,NW,315,28.0,30.0,99,0.01,,,0.40,meteohub,2013-06-03 08:42:00,
2013-06-03 02:47:00,37.8,37.6,24.03,NW,315,25.0,30.0,99,0.01,,,0.40,meteohub,2013-06-03 08:47:00,
2013-06-03 02:52:00,37.8,37.6,24.02,NW,315,23.0,30.0,99,0.01,,,0.40,meteohub,2013-06-03 08:52:00,
2013-06-03 02:57:00,37.4,37.2,24.02,NW,315,24.0,30.0,99,0.02,,,0.41,meteohub,2013-06-03 08:57:00,
2013-06-03 03:02:00,37.6,37.4,24.02,NW,315,23.0,27.0,99,0.04,,,0.43,meteohub,2013-06-03 09:02:00,
2013-06-03 03:07:00,37.6,37.4,24.02,NW,315,23.0,24.0,99,0.04,,,0.43,meteohub,2013-06-03 09:07:00,
2013-06-03 03:12:00,37.0,36.9,24.02,NW,315,23.0,26.0,99,0.04,,,0.43,meteohub,2013-06-03 09:12:00,
2013-06-03 03:17:00,36.7,36.5,24.02,NW,315,24.0,26.0,99,0.02,,,0.43,meteohub,2013-06-03 09:17:00,
2013-06-03 03:22:00,36.1,36.0,24.02,NW,315,22.0,28.0,99,0.02,,,0.43,meteohub,2013-06-03 09:22:00,
2013-06-03 03:27:00,35.2,35.1,24.02,NW,315,26.0,28.0,99,0.02,,,0.43,meteohub,2013-06-03 09:27:00,
2013-06-03 03:32:00,35.4,35.2,24.02,NW,315,25.0,28.0,99,0.02,,,0.43,meteohub,2013-06-03 09:32:00,
2013-06-03 03:37:00,35.2,35.1,24.02,NW,315,23.0,27.0,99,0.02,,,0.43,meteohub,2013-06-03 09:37:00,
2013-06-03 03:42:00,34.9,34.7,24.02,NW,315,27.0,27.0,99,0.04,,,0.44,meteohub,2013-06-03 09:42:00,
2013-06-03 03:47:00,34.7,34.5,24.02,NW,315,28.0,29.0,99,0.04,,,0.44,meteohub,2013-06-03 09:47:00,
2013-06-03 03:52:00,34.9,34.7,24.02,NW,315,23.0,29.0,99,0.02,,,0.44,meteohub,2013-06-03 09:52:00,
2013-06-03 03:57:00,34.9,34.7,24.02,NW,315,23.0,29.0,99,0.02,,,0.44,meteohub,2013-06-03 09:57:00,
2013-06-03 04:02:00,34.7,34.5,24.02,NW,315,23.0,29.0,99,0.01,,,0.44,meteohub,2013-06-03 10:02:00,
2013-06-03 04:07:00,34.7,34.5,24.02,NW,315,23.0,25.0,99,0.01,,,0.44,meteohub,2013-06-03 10:07:00,
2013-06-03 04:12:00,34.5,34.3,24.02,NW,315,21.0,25.0,99,0.02,,,0.45,meteohub,2013-06-03 10:12:00,
2013-06-03 04:17:00,34.3,34.2,24.02,NW,315,22.0,23.0,99,0.02,,,0.45,meteohub,2013-06-03 10:17:00,
2013-06-03 04:22:00,34.2,34.0,24.02,NW,315,25.0,26.0,99,0.02,,,0.45,meteohub,2013-06-03 10:22:00,
2013-06-03 04:27:00,34.2,34.0,24.02,NW,315,23.0,26.0,99,0.02,,,0.45,meteohub,2013-06-03 10:27:00,
2013-06-03 04:32:00,32.7,32.5,24.02,NW,315,23.0,27.0,99,0.02,,,0.45,meteohub,2013-06-03 10:32:00,
2013-06-03 04:37:00,33.4,33.3,24.02,WNW,293,21.0,27.0,99,0.02,,,0.45,meteohub,2013-06-03 10:37:00,
2013-06-03 04:42:00,33.4,33.3,24.01,NW,315,23.0,29.0,99,0.01,,,0.45,meteohub,2013-06-03 10:42:00,
2013-06-03 04:47:00,33.4,33.3,24.01,NW,315,24.0,29.0,99,0.01,,,0.45,meteohub,2013-06-03 10:47:00,
2013-06-03 04:57:00,33.8,33.6,24.01,NW,315,26.0,26.0,99,0.01,,,0.45,meteohub,2013-06-03 10:57:00,
2013-06-03 05:02:00,33.8,33.6,24.01,NW,315,27.0,27.0,99,0.01,,,0.45,meteohub,2013-06-03 11:02:00,
2013-06-03 05:07:00,33.8,33.6,24.01,NW,315,27.0,27.0,99,0.01,,,0.45,meteohub,2013-06-03 11:07:00,
2013-06-03 05:12:00,34.2,34.0,24.01,NW,315,30.0,30.0,99,0.00,,,0.45,meteohub,2013-06-03 11:12:00,
2013-06-03 05:17:00,34.0,33.8,24.01,NW,315,27.0,32.0,99,0.00,,,0.45,meteohub,2013-06-03 11:17:00,
2013-06-03 05:22:00,34.0,33.8,24.01,NW,315,29.0,32.0,99,0.00,,,0.45,meteohub,2013-06-03 11:22:00,
2013-06-03 05:27:00,34.0,33.8,24.01,NW,315,28.0,35.0,99,0.00,,,0.45,meteohub,2013-06-03 11:27:00,
2013-06-03 05:32:00,34.0,33.8,24.00,NW,315,34.0,35.0,99,0.00,,,0.45,meteohub,2013-06-03 11:32:00,
2013-06-03 05:37:00,34.2,34.0,24.00,NW,315,34.0,35.0,99,0.00,,,0.45,meteohub,2013-06-03 11:37:00,
2013-06-03 05:42:00,34.2,34.0,24.00,NW,315,34.0,40.0,99,0.01,,,0.46,meteohub,2013-06-03 11:42:00,
2013-06-03 05:47:00,34.5,34.3,24.00,NW,315,36.0,40.0,99,0.01,,,0.46,meteohub,2013-06-03 11:47:00,
2013-06-03 05:52:00,34.5,34.3,24.00,NW,315,36.0,40.0,99,0.01,,,0.46,meteohub,2013-06-03 11:52:00,
2013-06-03 05:57:00,34.3,34.2,24.00,NW,315,34.0,38.0,99,0.02,,,0.47,meteohub,2013-06-03 11:57:00,
2013-06-03 06:02:00,34.3,34.2,24.00,NW,315,32.0,38.0,99,0.04,,,0.48,meteohub,2013-06-03 12:02:00,
2013-06-03 06:07:00,34.3,34.2,24.01,NW,315,32.0,38.0,99,0.04,,,0.48,meteohub,2013-06-03 12:07:00,
2013-06-03 06:12:00,34.9,34.7,24.01,NW,315,35.0,36.0,99,0.05,,,0.50,meteohub,2013-06-03 12:12:00,
2013-06-03 06:17:00,34.9,34.7,24.01,NW,315,31.0,35.0,99,0.06,,,0.51,meteohub,2013-06-03 12:17:00,
2013-06-03 06:22:00,34.9,34.7,24.01,NW,315,29.0,35.0,99,0.06,,,0.51,meteohub,2013-06-03 12:22:00,
2013-06-03 06:27:00,35.1,34.9,24.01,NW,315,30.0,35.0,99,0.07,,,0.52,meteohub,2013-06-03 12:27:00,
2013-06-03 06:37:00,35.2,35.1,24.01,WNW,293,27.0,36.0,99,0.08,,,0.53,meteohub,2013-06-03 12:37:00,
2013-06-03 06:47:00,35.1,34.9,24.02,NW,315,29.0,36.0,99,0.07,,,0.53,meteohub,2013-06-03 12:47:00,
2013-06-03 06:52:00,35.4,35.2,24.01,NW,315,33.0,33.0,99,0.07,,,0.54,meteohub,2013-06-03 12:52:00,
2013-06-03 06:57:00,35.6,35.4,24.02,NW,315,23.0,36.0,99,0.07,,,0.56,meteohub,2013-06-03 12:57:00,
2013-06-03 07:02:00,35.6,35.4,24.01,NW,315,28.0,36.0,99,0.07,,,0.56,meteohub,2013-06-03 13:02:00,
2013-06-03 07:07:00,35.6,35.4,24.02,NW,315,28.0,36.0,99,0.07,,,0.56,meteohub,2013-06-03 13:07:00,
2013-06-03 07:12:00,35.6,35.4,24.02,NW,315,27.0,34.0,99,0.05,,,0.56,meteohub,2013-06-03 13:12:00,
2013-06-03 07:17:00,35.6,35.4,24.02,NW,315,27.0,28.0,99,0.06,,,0.57,meteohub,2013-06-03 13:17:00,
2013-06-03 07:22:00,35.8,35.6,24.02,NW,315,26.0,29.0,99,0.06,,,0.57,meteohub,2013-06-03 13:22:00,
2013-06-03 07:27:00,35.8,35.6,24.02,NW,315,24.0,29.0,99,0.05,,,0.57,meteohub,2013-06-03 13:27:00,
2013-06-03 07:32:00,35.8,35.6,24.02,NW,315,22.0,28.0,99,0.05,,,0.58,meteohub,2013-06-03 13:32:00,
2013-06-03 07:37:00,36.0,35.8,24.02,NW,315,21.0,27.0,99,0.05,,,0.58,meteohub,2013-06-03 13:37:00,
2013-06-03 07:42:00,36.1,36.0,24.03,NW,315,19.0,26.0,99,0.05,,,0.58,meteohub,2013-06-03 13:42:00,
2013-06-03 07:47:00,36.1,36.0,24.03,NW,315,22.0,22.0,99,0.04,,,0.58,meteohub,2013-06-03 13:47:00,
2013-06-03 07:52:00,37.2,37.0,24.03,NW,315,21.0,22.0,99,0.04,,,0.58,meteohub,2013-06-03 13:52:00,
2013-06-03 08:02:00,36.3,36.1,24.03,NW,315,23.0,24.0,99,0.02,,,0.58,meteohub,2013-06-03 14:02:00,
2013-06-03 08:07:00,36.3,36.1,24.03,NW,315,23.0,24.0,99,0.02,,,0.58,meteohub,2013-06-03 14:07:00,
2013-06-03 08:12:00,36.7,36.5,24.02,NW,315,21.0,23.0,99,0.04,,,0.59,meteohub,2013-06-03 14:12:00,
2013-06-03 08:17:00,36.9,36.7,24.03,NW,315,22.0,24.0,99,0.02,,,0.59,meteohub,2013-06-03 14:17:00,
2013-06-03 08:22:00,36.7,36.5,24.03,NW,315,22.0,27.0,99,0.02,,,0.59,meteohub,2013-06-03 14:22:00,
2013-06-03 08:27:00,36.9,36.7,24.03,NW,315,23.0,27.0,99,0.01,,,0.59,meteohub,2013-06-03 14:27:00,
2013-06-03 08:37:00,36.9,36.7,24.03,NW,315,21.0,25.0,99,0.01,,,0.59,meteohub,2013-06-03 14:37:00,
2013-06-03 08:42:00,37.2,37.0,24.04,NW,315,16.0,25.0,99,0.01,,,0.59,meteohub,2013-06-03 14:42:00,
2013-06-03 08:47:00,37.2,37.0,24.04,NW,315,15.0,23.0,99,0.01,,,0.59,meteohub,2013-06-03 14:47:00,
2013-06-03 08:52:00,37.2,37.0,24.03,NW,315,17.0,21.0,99,0.01,,,0.59,meteohub,2013-06-03 14:52:00,
2013-06-03 08:57:00,37.2,37.0,24.04,NW,315,17.0,18.0,99,0.02,,,0.60,meteohub,2013-06-03 14:57:00,
2013-06-03 09:02:00,37.4,37.2,24.03,NW,315,21.0,21.0,99,0.02,,,0.60,meteohub,2013-06-03 15:02:00,
2013-06-03 09:07:00,37.4,37.2,24.03,NW,315,21.0,21.0,99,0.02,,,0.60,meteohub,2013-06-03 15:07:00,
2013-06-03 09:12:00,37.2,37.0,24.02,NW,315,35.0,35.0,99,0.02,,,0.61,meteohub,2013-06-03 15:12:00,
2013-06-03 09:17:00,38.1,37.9,24.02,NW,315,31.0,36.0,99,0.02,,,0.61,meteohub,2013-06-03 15:17:00,
2013-06-03 09:22:00,37.6,37.4,24.03,NW,315,33.0,36.0,99,0.04,,,0.63,meteohub,2013-06-03 15:22:00,
2013-06-03 09:27:00,37.4,37.2,24.01,NW,315,43.0,43.0,99,0.04,,,0.63,meteohub,2013-06-03 15:27:00,
2013-06-03 09:32:00,37.4,37.2,24.01,NW,315,38.0,43.0,99,0.04,,,0.63,meteohub,2013-06-03 15:32:00,
2013-06-03 09:37:00,37.8,37.6,24.01,NW,315,36.0,43.0,99,0.06,,,0.65,meteohub,2013-06-03 15:37:00,
2013-06-03 09:42:00,37.8,37.6,24.01,NW,315,39.0,43.0,99,0.06,,,0.65,meteohub,2013-06-03 15:42:00,
2013-06-03 09:47:00,37.8,37.6,24.02,NW,315,36.0,40.0,99,0.06,,,0.65,meteohub,2013-06-03 15:47:00,
2013-06-03 09:52:00,37.9,37.8,24.02,NW,315,36.0,39.0,99,0.07,,,0.66,meteohub,2013-06-03 15:52:00,
2013-06-03 10:02:00,37.9,37.8,24.02,WNW,293,35.0,40.0,99,0.07,,,0.67,meteohub,2013-06-03 16:02:00,
2013-06-03 10:07:00,37.9,37.8,24.01,WNW,293,35.0,40.0,99,0.07,,,0.67,meteohub,2013-06-03 16:07:00,
2013-06-03 10:12:00,37.9,37.8,24.01,North,0,40.0,41.0,99,0.08,,,0.69,meteohub,2013-06-03 16:12:00,
2013-06-03 10:17:00,38.7,38.5,24.01,North,0,40.0,41.0,99,0.08,,,0.70,meteohub,2013-06-03 16:17:00,
2013-06-03 10:22:00,38.1,37.9,24.01,WNW,293,40.0,42.0,99,0.08,,,0.71,meteohub,2013-06-03 16:22:00,
2013-06-03 10:27:00,38.1,37.9,24.01,NW,315,43.0,43.0,99,0.09,,,0.72,meteohub,2013-06-03 16:27:00,
2013-06-03 10:32:00,38.1,37.9,24.01,NW,315,43.0,48.0,99,0.09,,,0.73,meteohub,2013-06-03 16:32:00,
2013-06-03 10:37:00,38.1,37.9,24.01,NW,315,46.0,48.0,99,0.09,,,0.74,meteohub,2013-06-03 16:37:00,
2013-06-03 10:42:00,37.9,37.8,24.02,WNW,293,53.0,53.0,99,0.12,,,0.77,meteohub,2013-06-03 16:42:00,
2013-06-03 10:47:00,37.9,37.8,24.00,North,0,55.0,55.0,99,0.13,,,0.78,meteohub,2013-06-03 16:47:00,
2013-06-03 10:52:00,37.9,37.8,24.01,NW,315,55.0,56.0,99,0.15,,,0.81,meteohub,2013-06-03 16:52:00,
2013-06-03 10:57:00,37.8,37.6,24.01,North,0,60.0,60.0,99,0.17,,,0.83,meteohub,2013-06-03 16:57:00,
2013-06-03 11:02:00,37.9,37.8,23.99,NW,315,53.0,60.0,99,0.17,,,0.84,meteohub,2013-06-03 17:02:00,
2013-06-03 11:07:00,37.9,37.8,24.01,NW,315,53.0,60.0,99,0.18,,,0.85,meteohub,2013-06-03 17:07:00,
2013-06-03 11:12:00,38.1,37.9,24.02,NNW,338,44.0,60.0,99,0.21,,,0.91,meteohub,2013-06-03 17:12:00,
2013-06-03 11:17:00,37.9,37.8,24.02,North,0,47.0,56.0,99,0.24,,,0.93,meteohub,2013-06-03 17:17:00,
2013-06-03 11:22:00,37.8,37.6,24.01,NW,315,55.0,56.0,99,0.22,,,0.94,meteohub,2013-06-03 17:22:00,
2013-06-03 11:27:00,37.4,37.2,24.02,NW,315,57.0,59.0,99,0.26,,,0.98,meteohub,2013-06-03 17:27:00,
2013-06-03 11:32:00,37.6,37.4,24.03,North,0,53.0,59.0,99,0.27,,,1.02,meteohub,2013-06-03 17:32:00,
2013-06-03 11:37:00,37.9,37.8,24.03,North,0,47.0,59.0,99,0.27,,,1.03,meteohub,2013-06-03 17:37:00,
2013-06-03 11:42:00,37.2,37.0,24.02,NW,315,58.0,62.0,99,0.30,,,1.06,meteohub,2013-06-03 17:42:00,
2013-06-03 11:47:00,37.0,36.9,24.02,North,0,53.0,62.0,99,0.31,,,1.10,meteohub,2013-06-03 17:47:00,
2013-06-03 11:52:00,37.6,37.4,24.04,North,0,47.0,62.0,99,0.30,,,1.11,meteohub,2013-06-03 17:52:00,
2013-06-03 11:57:00,37.6,37.4,24.04,NNW,338,45.0,62.0,99,0.32,,,1.15,meteohub,2013-06-03 17:57:00,
2013-06-03 12:02:00,37.4,37.2,24.04,North,0,47.0,55.0,99,0.32,,,1.17,meteohub,2013-06-03 18:02:00,
2013-06-03 12:07:00,37.4,37.2,24.04,North,0,47.0,53.0,99,0.32,,,1.17,meteohub,2013-06-03 18:07:00,
2013-06-03 12:12:00,38.1,37.9,24.04,NW,315,39.0,53.0,99,0.28,,,1.20,meteohub,2013-06-03 18:12:00,
2013-06-03 12:17:00,37.8,37.6,24.04,North,0,52.0,53.0,99,0.31,,,1.24,meteohub,2013-06-03 18:17:00,
2013-06-03 12:27:00,37.6,37.4,24.06,North,0,51.0,58.0,99,0.30,,,1.29,meteohub,2013-06-03 18:27:00,
2013-06-03 12:32:00,36.1,36.0,24.07,North,0,31.0,58.0,99,0.27,,,1.29,meteohub,2013-06-03 18:32:00,
2013-06-03 12:37:00,35.8,35.6,24.08,North,0,30.0,57.0,99,0.26,,,1.30,meteohub,2013-06-03 18:37:00,
2013-06-03 12:42:00,35.8,35.6,24.09,North,0,30.0,53.0,99,0.24,,,1.31,meteohub,2013-06-03 18:42:00,
2013-06-03 12:47:00,35.6,35.4,24.09,North,0,33.0,36.0,99,0.21,,,1.31,meteohub,2013-06-03 18:47:00,
2013-06-03 12:52:00,36.0,35.8,24.09,North,0,34.0,34.0,99,0.19,,,1.31,meteohub,2013-06-03 18:52:00,
2013-06-03 13:02:00,35.2,35.1,24.09,North,0,34.0,34.0,99,0.15,,,1.32,meteohub,2013-06-03 19:02:00,
2013-06-03 13:12:00,34.9,34.7,24.10,North,0,33.0,35.0,99,0.12,,,1.33,meteohub,2013-06-03 19:12:00,
2013-06-03 13:17:00,34.7,34.5,24.10,North,0,34.0,35.0,99,0.09,,,1.33,meteohub,2013-06-03 19:17:00,
2013-06-03 13:22:00,34.9,34.7,24.10,North,0,34.0,36.0,99,0.08,,,1.35,meteohub,2013-06-03 19:22:00,
2013-06-03 13:27:00,35.2,35.1,24.11,NNE,23,34.0,36.0,99,0.06,,,1.35,meteohub,2013-06-03 19:27:00,
2013-06-03 13:32:00,34.5,33.4,24.10,North,0,35.0,38.0,96,0.05,,,1.35,meteohub,2013-06-03 19:32:00,
2013-06-03 13:37:00,35.1,34.5,24.11,North,0,28.0,38.0,98,0.05,,,1.35,meteohub,2013-06-03 19:37:00,
2013-06-03 13:42:00,34.7,34.0,24.11,North,0,30.0,38.0,97,0.04,,,1.35,meteohub,2013-06-03 19:42:00,
2013-06-03 13:47:00,35.1,34.5,24.11,North,0,31.0,36.0,98,0.04,,,1.35,meteohub,2013-06-03 19:47:00,
2013-06-03 13:52:00,35.6,35.1,24.11,North,0,34.0,34.0,98,0.05,,,1.36,meteohub,2013-06-03 19:52:00,
2013-06-03 13:57:00,35.8,35.2,24.11,North,0,30.0,34.0,98,0.04,,,1.36,meteohub,2013-06-03 19:57:00,
2013-06-03 14:02:00,35.6,35.1,24.12,North,0,31.0,37.0,98,0.04,,,1.36,meteohub,2013-06-03 20:02:00,
2013-06-03 14:07:00,35.6,35.1,24.12,North,0,31.0,37.0,98,0.04,,,1.36,meteohub,2013-06-03 20:07:00,
2013-06-03 14:12:00,35.8,34.5,24.12,North,0,30.0,36.0,95,0.02,,,1.36,meteohub,2013-06-03 20:12:00,
2013-06-03 14:22:00,36.0,34.9,24.13,North,0,26.0,34.0,96,0.02,,,1.37,meteohub,2013-06-03 20:22:00,
2013-06-03 14:32:00,35.6,34.9,24.12,North,0,37.0,37.0,97,0.02,,,1.37,meteohub,2013-06-03 20:32:00,
2013-06-03 14:37:00,35.2,34.2,24.12,North,0,42.0,42.0,96,0.04,,,1.38,meteohub,2013-06-03 20:37:00,
2013-06-03 14:42:00,35.4,34.2,24.13,North,0,35.0,43.0,95,0.04,,,1.38,meteohub,2013-06-03 20:42:00,
2013-06-03 14:47:00,35.6,34.3,24.14,North,0,28.0,43.0,95,0.04,,,1.38,meteohub,2013-06-03 20:47:00,
2013-06-03 14:52:00,36.1,34.5,24.14,North,0,31.0,43.0,94,0.02,,,1.38,meteohub,2013-06-03 20:52:00,
2013-06-03 14:57:00,36.5,34.9,24.14,North,0,28.0,37.0,94,0.04,,,1.39,meteohub,2013-06-03 20:57:00,
2013-06-03 15:02:00,36.5,34.7,24.14,North,0,28.0,34.0,93,0.04,,,1.39,meteohub,2013-06-03 21:02:00,
2013-06-03 15:07:00,36.5,34.7,24.14,North,0,28.0,33.0,93,0.04,,,1.39,meteohub,2013-06-03 21:07:00,
2013-06-03 15:12:00,37.2,35.1,24.15,North,0,30.0,30.0,92,0.04,,,1.39,meteohub,2013-06-03 21:12:00,
2013-06-03 15:17:00,36.9,34.7,24.15,WNW,293,24.0,30.0,92,0.02,,,1.39,meteohub,2013-06-03 21:17:00,
2013-06-03 15:22:00,36.9,34.7,24.15,North,0,24.0,30.0,92,0.02,,,1.39,meteohub,2013-06-03 21:22:00,
2013-06-03 15:27:00,37.2,34.9,24.15,North,0,25.0,30.0,91,0.02,,,1.39,meteohub,2013-06-03 21:27:00,
2013-06-03 15:32:00,36.9,34.5,24.15,North,0,25.0,29.0,91,0.02,,,1.39,meteohub,2013-06-03 21:32:00,
2013-06-03 15:37:00,36.7,34.0,24.16,North,0,23.0,30.0,90,0.01,,,1.39,meteohub,2013-06-03 21:37:00,
2013-06-03 15:42:00,36.1,33.3,24.17,North,0,30.0,30.0,89,0.02,,,1.41,meteohub,2013-06-03 21:42:00,
2013-06-03 15:47:00,34.9,32.0,24.17,North,0,27.0,31.0,89,0.02,,,1.41,meteohub,2013-06-03 21:47:00,
2013-06-03 15:52:00,35.2,32.0,24.16,North,0,31.0,34.0,88,0.01,,,1.41,meteohub,2013-06-03 21:52:00,
2013-06-03 15:57:00,35.6,32.4,24.17,North,0,27.0,36.0,88,0.01,,,1.41,meteohub,2013-06-03 21:57:00,
2013-06-03 16:02:00,35.1,31.6,24.17,North,0,35.0,36.0,87,0.01,,,1.41,meteohub,2013-06-03 22:02:00,
2013-06-03 16:07:00,35.1,31.6,24.17,North,0,35.0,36.0,87,0.02,,,1.42,meteohub,2013-06-03 22:07:00,
2013-06-03 16:12:00,35.2,31.5,24.17,North,0,29.0,35.0,86,0.02,,,1.42,meteohub,2013-06-03 22:12:00,
2013-06-03 16:17:00,34.7,30.7,24.18,North,0,28.0,35.0,85,0.04,,,1.43,meteohub,2013-06-03 22:17:00,
2013-06-03 16:22:00,35.6,31.3,24.18,NNE,23,27.0,35.0,84,0.04,,,1.43,meteohub,2013-06-03 22:22:00,
2013-06-03 16:27:00,35.1,30.7,24.18,North,0,30.0,30.0,84,0.04,,,1.43,meteohub,2013-06-03 22:27:00,
2013-06-03 16:32:00,35.4,30.7,24.18,North,0,25.0,31.0,83,0.04,,,1.43,meteohub,2013-06-03 22:32:00,
2013-06-03 16:37:00,36.9,32.2,24.19,North,0,22.0,31.0,83,0.04,,,1.43,meteohub,2013-06-03 22:37:00,
2013-06-03 16:42:00,35.6,30.7,24.18,North,0,25.0,31.0,82,0.04,,,1.44,meteohub,2013-06-03 22:42:00,
2013-06-03 16:52:00,35.6,30.0,24.18,North,0,30.0,33.0,80,0.05,,,1.45,meteohub,2013-06-03 22:52:00,
2013-06-03 16:57:00,36.0,30.4,24.18,North,0,30.0,34.0,80,0.05,,,1.45,meteohub,2013-06-03 22:57:00,
2013-06-03 17:02:00,36.1,30.2,24.19,North,0,28.0,34.0,79,0.04,,,1.45,meteohub,2013-06-03 23:02:00,
2013-06-03 17:07:00,36.1,30.2,24.19,North,0,28.0,34.0,79,0.04,,,1.45,meteohub,2013-06-03 23:07:00,
2013-06-03 17:12:00,35.6,29.5,24.19,North,0,32.0,33.0,78,0.05,,,1.46,meteohub,2013-06-03 23:12:00,
2013-06-03 17:17:00,35.8,29.3,24.19,North,0,27.0,32.0,77,0.05,,,1.48,meteohub,2013-06-03 23:17:00,
2013-06-03 17:22:00,36.3,29.5,24.19,North,0,23.0,32.0,76,0.05,,,1.48,meteohub,2013-06-03 23:22:00,
2013-06-03 17:27:00,36.7,29.1,24.20,North,0,28.0,32.0,74,0.05,,,1.48,meteohub,2013-06-03 23:27:00,
2013-06-03 17:37:00,35.6,27.9,24.20,North,0,26.0,31.0,73,0.06,,,1.49,meteohub,2013-06-03 23:37:00,
2013-06-03 17:42:00,35.8,28.0,24.20,North,0,29.0,32.0,73,0.05,,,1.49,meteohub,2013-06-03 23:42:00,
2013-06-03 17:47:00,36.3,28.6,24.20,North,0,25.0,32.0,73,0.05,,,1.49,meteohub,2013-06-03 23:47:00,
2013-06-03 17:52:00,35.6,28.2,24.20,North,0,30.0,32.0,74,0.04,,,1.49,meteohub,2013-06-03 23:52:00,
2013-06-03 17:57:00,36.1,28.9,24.20,North,0,28.0,32.0,75,0.04,,,1.49,meteohub,2013-06-03 23:57:00,
2013-06-03 18:02:00,35.8,28.9,24.21,North,0,29.0,32.0,76,0.04,,,1.49,meteohub,2013-06-04 00:02:00,
2013-06-03 18:07:00,35.8,28.9,24.21,North,0,29.0,32.0,76,0.04,,,0.00,meteohub,2013-06-04 00:07:00,
2013-06-03 18:12:00,35.4,29.3,24.21,North,0,27.0,32.0,78,0.04,,,0.01,meteohub,2013-06-04 00:12:00,
2013-06-03 18:17:00,35.4,29.5,24.21,North,0,25.0,30.0,79,0.02,,,0.01,meteohub,2013-06-04 00:17:00,
2013-06-03 18:22:00,36.0,29.8,24.21,North,0,21.0,30.0,78,0.02,,,0.01,meteohub,2013-06-04 00:22:00,
2013-06-03 18:27:00,35.8,29.8,24.21,North,0,25.0,30.0,79,0.02,,,0.01,meteohub,2013-06-04 00:27:00,
2013-06-03 18:32:00,36.1,30.0,24.21,North,0,23.0,27.0,78,0.01,,,0.01,meteohub,2013-06-04 00:32:00,
2013-06-03 18:37:00,36.5,30.6,24.21,North,0,24.0,27.0,79,0.01,,,0.01,meteohub,2013-06-04 00:37:00,
2013-06-03 18:42:00,36.1,30.0,24.21,North,0,24.0,27.0,78,0.01,,,0.01,meteohub,2013-06-04 00:42:00,
2013-06-03 18:47:00,36.0,30.0,24.21,North,0,23.0,26.0,79,0.01,,,0.01,meteohub,2013-06-04 00:47:00,
2013-06-03 18:52:00,35.8,30.2,24.21,North,0,25.0,26.0,80,0.01,,,0.01,meteohub,2013-06-04 00:52:00,
2013-06-03 18:57:00,35.8,29.8,24.22,North,0,21.0,26.0,79,0.01,,,0.01,meteohub,2013-06-04 00:57:00,
2013-06-03 19:02:00,35.8,29.8,24.22,North,0,22.0,26.0,79,0.01,,,0.01,meteohub,2013-06-04 01:02:00,
2013-06-03 19:07:00,35.8,29.8,24.22,North,0,22.0,26.0,79,0.01,,,0.01,meteohub,2013-06-04 01:07:00,
2013-06-03 19:12:00,36.1,30.0,24.22,North,0,22.0,24.0,78,0.00,,,0.01,meteohub,2013-06-04 01:12:00,
2013-06-03 19:17:00,36.1,30.0,24.22,North,0,25.0,27.0,78,0.00,,,0.01,meteohub,2013-06-04 01:17:00,
2013-06-03 19:22:00,35.8,29.7,24.22,North,0,27.0,27.0,78,0.00,,,0.01,meteohub,2013-06-04 01:22:00,
2013-06-03 19:27:00,34.7,28.9,24.22,North,0,26.0,28.0,79,0.00,,,0.01,meteohub,2013-06-04 01:27:00,
2013-06-03 19:32:00,35.1,28.9,24.22,North,0,28.0,33.0,78,0.01,,,0.02,meteohub,2013-06-04 01:32:00,
2013-06-03 19:37:00,35.1,28.9,24.22,North,0,24.0,33.0,78,0.02,,,0.04,meteohub,2013-06-04 01:37:00,
2013-06-03 19:42:00,35.6,29.1,24.23,North,0,21.0,30.0,77,0.02,,,0.04,meteohub,2013-06-04 01:42:00,
2013-06-03 19:47:00,35.6,29.1,24.23,North,0,23.0,28.0,77,0.02,,,0.04,meteohub,2013-06-04 01:47:00,
2013-06-03 19:52:00,35.6,28.8,24.23,North,0,23.0,27.0,76,0.02,,,0.04,meteohub,2013-06-04 01:52:00,
2013-06-03 19:57:00,35.6,28.8,24.24,North,0,20.0,26.0,76,0.02,,,0.04,meteohub,2013-06-04 01:57:00,
2013-06-03 20:02:00,35.8,28.9,24.24,North,0,22.0,24.0,76,0.02,,,0.04,meteohub,2013-06-04 02:02:00,
2013-06-03 20:07:00,35.8,28.9,24.24,North,0,22.0,24.0,76,0.02,,,0.04,meteohub,2013-06-04 02:07:00,
2013-06-03 20:12:00,35.4,28.6,24.24,North,0,25.0,25.0,76,0.02,,,0.04,meteohub,2013-06-04 02:12:00,
2013-06-03 20:17:00,35.1,27.9,24.24,North,0,24.0,28.0,75,0.02,,,0.04,meteohub,2013-06-04 02:17:00,
2013-06-03 20:27:00,35.1,27.9,24.24,North,0,21.0,28.0,75,0.02,,,0.05,meteohub,2013-06-04 02:27:00,
2013-06-03 20:32:00,35.1,27.9,24.25,North,0,17.0,25.0,75,0.02,,,0.05,meteohub,2013-06-04 02:32:00,
2013-06-03 20:37:00,35.2,28.0,24.25,North,0,17.0,25.0,75,0.01,,,0.05,meteohub,2013-06-04 02:37:00,
2013-06-03 20:42:00,35.1,27.9,24.25,North,0,17.0,21.0,75,0.01,,,0.05,meteohub,2013-06-04 02:42:00,
2013-06-03 20:52:00,35.1,27.7,24.25,North,0,17.0,19.0,74,0.02,,,0.06,meteohub,2013-06-04 02:52:00,
2013-06-03 21:02:00,34.9,27.5,24.26,North,0,18.0,18.0,74,0.02,,,0.06,meteohub,2013-06-04 03:02:00,
2013-06-03 21:07:00,34.9,27.5,24.26,North,0,18.0,18.0,74,0.02,,,0.06,meteohub,2013-06-04 03:07:00,
2013-06-03 21:12:00,35.1,27.7,24.26,North,0,20.0,20.0,74,0.04,,,0.07,meteohub,2013-06-04 03:12:00,
2013-06-03 21:17:00,34.9,27.5,24.25,North,0,17.0,21.0,74,0.04,,,0.07,meteohub,2013-06-04 03:17:00,
2013-06-03 21:27:00,34.9,27.5,24.26,North,0,17.0,21.0,74,0.04,,,0.08,meteohub,2013-06-04 03:27:00,
2013-06-03 21:32:00,34.9,27.5,24.26,North,0,17.0,18.0,74,0.04,,,0.08,meteohub,2013-06-04 03:32:00,
2013-06-03 21:37:00,34.0,26.6,24.26,North,0,20.0,20.0,74,0.05,,,0.09,meteohub,2013-06-04 03:37:00,
2013-06-03 21:42:00,34.2,26.8,24.26,North,0,22.0,22.0,74,0.06,,,0.11,meteohub,2013-06-04 03:42:00,
2013-06-03 21:47:00,34.2,26.8,24.27,NNE,23,21.0,23.0,74,0.06,,,0.11,meteohub,2013-06-04 03:47:00,
2013-06-03 21:52:00,33.8,26.8,24.27,North,0,22.0,23.0,75,0.05,,,0.11,meteohub,2013-06-04 03:52:00,
2013-06-03 21:57:00,34.5,27.5,24.27,North,0,21.0,23.0,75,0.05,,,0.11,meteohub,2013-06-04 03:57:00,
2013-06-03 22:02:00,33.3,26.2,24.27,North,0,23.0,23.0,75,0.05,,,0.11,meteohub,2013-06-04 04:02:00,
2013-06-03 22:07:00,33.3,26.2,24.27,North,0,23.0,23.0,75,0.05,,,0.11,meteohub,2013-06-04 04:07:00,
2013-06-03 22:12:00,33.1,26.1,24.27,North,0,18.0,23.0,75,0.05,,,0.12,meteohub,2013-06-04 04:12:00,
2013-06-03 22:17:00,33.3,26.2,24.27,North,0,20.0,23.0,75,0.05,,,0.12,meteohub,2013-06-04 04:17:00,
2013-06-03 22:22:00,33.3,26.2,24.27,North,0,16.0,23.0,75,0.04,,,0.12,meteohub,2013-06-04 04:22:00,
2013-06-03 22:27:00,33.3,26.2,24.27,North,0,14.0,20.0,75,0.04,,,0.12,meteohub,2013-06-04 04:27:00,
2013-06-03 22:37:00,33.3,26.2,24.27,North,0,12.0,17.0,75,0.04,,,0.13,meteohub,2013-06-04 04:37:00,
2013-06-03 22:42:00,34.0,27.0,24.28,North,0,17.0,17.0,75,0.02,,,0.13,meteohub,2013-06-04 04:42:00,
2013-06-03 22:52:00,32.4,25.7,24.28,North,0,17.0,19.0,76,0.02,,,0.13,meteohub,2013-06-04 04:52:00,
2013-06-03 22:57:00,32.4,25.7,24.27,NNE,23,16.0,19.0,76,0.02,,,0.13,meteohub,2013-06-04 04:57:00,
2013-06-03 23:02:00,32.4,25.7,24.28,North,0,15.0,20.0,76,0.02,,,0.13,meteohub,2013-06-04 05:02:00,
2013-06-03 23:07:00,32.4,25.7,24.27,North,0,15.0,20.0,76,0.02,,,0.13,meteohub,2013-06-04 05:07:00,
2013-06-03 23:12:00,32.9,26.2,24.27,North,0,17.0,20.0,76,0.01,,,0.13,meteohub,2013-06-04 05:12:00,
2013-06-03 23:17:00,33.3,26.6,24.27,North,0,18.0,19.0,76,0.02,,,0.14,meteohub,2013-06-04 05:17:00,
2013-06-03 23:22:00,33.3,26.6,24.27,North,0,18.0,19.0,76,0.02,,,0.14,meteohub,2013-06-04 05:22:00,
2013-06-03 23:27:00,33.4,26.8,24.27,North,0,16.0,19.0,76,0.02,,,0.14,meteohub,2013-06-04 05:27:00,
2013-06-03 23:32:00,33.4,26.8,24.27,North,0,16.0,19.0,76,0.01,,,0.14,meteohub,2013-06-04 05:32:00,
2013-06-03 23:37:00,33.4,26.8,24.27,North,0,17.0,18.0,76,0.02,,,0.15,meteohub,2013-06-04 05:37:00,
2013-06-03 23:42:00,33.6,26.8,24.28,North,0,17.0,17.0,76,0.02,,,0.15,meteohub,2013-06-04 05:42:00,
2013-06-03 23:47:00,33.6,26.8,24.28,North,0,17.0,18.0,76,0.02,,,0.15,meteohub,2013-06-04 05:47:00,
2013-06-03 23:52:00,33.6,26.8,24.27,North,0,15.0,18.0,76,0.02,,,0.15,meteohub,2013-06-04 05:52:00,
2013-06-03 23:57:00,33.8,27.0,24.27,North,0,17.0,18.0,76,0.04,,,0.17,meteohub,2013-06-04 05:57:00,